sensor_id;sensor_type;location;lat;lon;timestamp;temperature;humidity
2212;DHT22;48849;48.758;9.158;2023-11-25T00:02:11;7.60;99.90
2212;DHT22;48849;48.758;9.158;2023-11-25T00:04:38;7.50;99.90
2212;DHT22;48849;48.758;9.158;2023-11-25T00:07:05;7.50;99.90
2212;DHT22;48849;48.758;9.158;2023-11-25T00:09:32;7.50;99.90
2212;DHT22;48849;48.758;9.158;2023-11-25T00:11:58;7.50;99.90
2212;DHT22;48849;48.758;9.158;2023-11-25T00:14:25;8.50;99.90
2212;DHT22;48849;48.758;9.158;2023-11-25T00:16:53;7.40;99.90
2212;DHT22;48849;48.758;9.158;2023-11-25T00:19:20;8.80;99.90
2212;DHT22;48849;48.758;9.158;2023-11-25T00:21:47;7.50;99.90
2212;DHT22;48849;48.758;9.158;2023-11-25T00:24:13;7.50;99.90
2212;DHT22;48849;48.758;9.158;2023-11-25T00:26:40;7.40;99.90
2212;DHT22;48849;48.758;9.158;2023-11-25T00:29:08;7.40;99.90
2212;DHT22;48849;48.758;9.158;2023-11-25T00:31:35;7.40;99.90
2212;DHT22;48849;48.758;9.158;2023-11-25T00:34:03;7.40;99.90
2212;DHT22;48849;48.758;9.158;2023-11-25T00:36:29;7.50;99.90
2212;DHT22;48849;48.758;9.158;2023-11-25T00:38:57;7.50;99.90
2212;DHT22;48849;48.758;9.158;2023-11-25T00:41:25;7.50;99.90
2212;DHT22;48849;48.758;9.158;2023-11-25T00:43:52;8.10;99.90
2212;DHT22;48849;48.758;9.158;2023-11-25T00:46:19;7.60;99.90
2212;DHT22;48849;48.758;9.158;2023-11-25T00:48:45;7.60;99.90
2212;DHT22;48849;48.758;9.158;2023-11-25T00:51:13;7.50;99.90
2212;DHT22;48849;48.758;9.158;2023-11-25T00:53:40;7.60;99.90
2212;DHT22;48849;48.758;9.158;2023-11-25T00:56:07;7.50;99.90
2212;DHT22;48849;48.758;9.158;2023-11-25T00:58:34;7.50;99.90
2212;DHT22;48849;48.758;9.158;2023-11-25T01:01:01;7.60;99.90
2212;DHT22;48849;48.758;9.158;2023-11-25T01:03:29;7.60;99.90
2212;DHT22;48849;48.758;9.158;2023-11-25T01:05:56;7.60;99.90
2212;DHT22;48849;48.758;9.158;2023-11-25T01:08:26;7.60;99.90
2212;DHT22;48849;48.758;9.158;2023-11-25T01:10:54;7.70;99.90
2212;DHT22;48849;48.758;9.158;2023-11-25T01:13:21;7.50;99.90
2212;DHT22;48849;48.758;9.158;2023-11-25T01:15:48;7.50;99.90
2212;DHT22;48849;48.758;9.158;2023-11-25T01:18:14;7.60;99.90
2212;DHT22;48849;48.758;9.158;2023-11-25T01:20:42;7.60;99.90
2212;DHT22;48849;48.758;9.158;2023-11-25T01:23:09;7.60;99.90
2212;DHT22;48849;48.758;9.158;2023-11-25T01:25:37;7.70;99.90
2212;DHT22;48849;48.758;9.158;2023-11-25T01:28:04;7.70;99.90
2212;DHT22;48849;48.758;9.158;2023-11-25T01:30:30;7.70;99.90
2212;DHT22;48849;48.758;9.158;2023-11-25T01:32:58;7.70;99.90
2212;DHT22;48849;48.758;9.158;2023-11-25T01:35:25;7.70;99.90
2212;DHT22;48849;48.758;9.158;2023-11-25T01:37:52;7.70;99.90
2212;DHT22;48849;48.758;9.158;2023-11-25T01:40:20;7.70;99.90
2212;DHT22;48849;48.758;9.158;2023-11-25T01:42:49;7.70;99.90
2212;DHT22;48849;48.758;9.158;2023-11-25T01:45:17;7.70;99.90
2212;DHT22;48849;48.758;9.158;2023-11-25T01:47:43;7.60;99.90
2212;DHT22;48849;48.758;9.158;2023-11-25T01:50:10;7.70;99.90
2212;DHT22;48849;48.758;9.158;2023-11-25T01:52:37;7.70;99.90
2212;DHT22;48849;48.758;9.158;2023-11-25T01:55:05;7.70;99.90
2212;DHT22;48849;48.758;9.158;2023-11-25T01:57:34;7.70;99.90
2212;DHT22;48849;48.758;9.158;2023-11-25T02:00:03;7.70;99.90
2212;DHT22;48849;48.758;9.158;2023-11-25T02:02:34;7.70;99.90
2212;DHT22;48849;48.758;9.158;2023-11-25T02:05:01;7.70;99.90
2212;DHT22;48849;48.758;9.158;2023-11-25T02:07:28;7.70;99.90
2212;DHT22;48849;48.758;9.158;2023-11-25T02:09:54;7.70;99.90
2212;DHT22;48849;48.758;9.158;2023-11-25T02:12:21;7.70;99.90
2212;DHT22;48849;48.758;9.158;2023-11-25T02:14:48;7.80;99.90
2212;DHT22;48849;48.758;9.158;2023-11-25T02:17:16;7.80;99.90
2212;DHT22;48849;48.758;9.158;2023-11-25T02:19:43;7.80;99.90
2212;DHT22;48849;48.758;9.158;2023-11-25T02:22:10;7.70;99.90
2212;DHT22;48849;48.758;9.158;2023-11-25T02:24:38;7.80;99.90
2212;DHT22;48849;48.758;9.158;2023-11-25T02:27:05;7.80;99.90
2212;DHT22;48849;48.758;9.158;2023-11-25T02:29:32;7.80;99.90
2212;DHT22;48849;48.758;9.158;2023-11-25T02:32:00;7.80;99.90
2212;DHT22;48849;48.758;9.158;2023-11-25T02:34:29;7.80;99.90
2212;DHT22;48849;48.758;9.158;2023-11-25T02:36:56;7.80;99.90
2212;DHT22;48849;48.758;9.158;2023-11-25T02:39:23;7.80;99.90
2212;DHT22;48849;48.758;9.158;2023-11-25T02:41:52;7.80;99.90
2212;DHT22;48849;48.758;9.158;2023-11-25T02:44:20;7.80;99.90
2212;DHT22;48849;48.758;9.158;2023-11-25T02:46:48;7.80;99.90
2212;DHT22;48849;48.758;9.158;2023-11-25T02:49:15;7.70;99.90
2212;DHT22;48849;48.758;9.158;2023-11-25T02:51:47;7.70;99.90
2212;DHT22;48849;48.758;9.158;2023-11-25T02:54:14;7.80;99.90
2212;DHT22;48849;48.758;9.158;2023-11-25T02:56:41;7.70;99.90
2212;DHT22;48849;48.758;9.158;2023-11-25T02:59:09;7.70;99.90
2212;DHT22;48849;48.758;9.158;2023-11-25T03:01:38;7.70;99.90
2212;DHT22;48849;48.758;9.158;2023-11-25T03:04:08;7.60;99.90
2212;DHT22;48849;48.758;9.158;2023-11-25T03:06:37;7.60;99.90
2212;DHT22;48849;48.758;9.158;2023-11-25T03:09:04;7.60;99.90
2212;DHT22;48849;48.758;9.158;2023-11-25T03:11:35;7.60;99.90
2212;DHT22;48849;48.758;9.158;2023-11-25T03:14:01;7.50;99.90
2212;DHT22;48849;48.758;9.158;2023-11-25T03:16:31;7.50;99.90
2212;DHT22;48849;48.758;9.158;2023-11-25T03:18:58;7.50;99.90
2212;DHT22;48849;48.758;9.158;2023-11-25T03:21:24;7.50;99.90
2212;DHT22;48849;48.758;9.158;2023-11-25T03:23:51;7.50;99.90
2212;DHT22;48849;48.758;9.158;2023-11-25T03:26:18;7.50;99.90
2212;DHT22;48849;48.758;9.158;2023-11-25T03:28:44;7.40;99.90
2212;DHT22;48849;48.758;9.158;2023-11-25T03:31:11;7.50;99.90
2212;DHT22;48849;48.758;9.158;2023-11-25T03:33:40;7.40;99.90
2212;DHT22;48849;48.758;9.158;2023-11-25T03:36:07;7.40;99.90
2212;DHT22;48849;48.758;9.158;2023-11-25T03:38:34;7.40;99.90
2212;DHT22;48849;48.758;9.158;2023-11-25T03:41:01;7.40;99.90
2212;DHT22;48849;48.758;9.158;2023-11-25T03:43:28;7.40;99.90
2212;DHT22;48849;48.758;9.158;2023-11-25T03:45:55;7.40;99.90
2212;DHT22;48849;48.758;9.158;2023-11-25T03:48:22;7.40;99.90
2212;DHT22;48849;48.758;9.158;2023-11-25T03:50:50;7.40;99.90
2212;DHT22;48849;48.758;9.158;2023-11-25T03:53:17;7.50;99.90
2212;DHT22;48849;48.758;9.158;2023-11-25T03:55:44;7.50;99.90
2212;DHT22;48849;48.758;9.158;2023-11-25T03:58:11;7.50;99.90
2212;DHT22;48849;48.758;9.158;2023-11-25T04:00:38;7.50;99.90
2212;DHT22;48849;48.758;9.158;2023-11-25T04:03:04;7.50;99.90
2212;DHT22;48849;48.758;9.158;2023-11-25T04:05:31;7.50;99.90
2212;DHT22;48849;48.758;9.158;2023-11-25T04:07:59;7.60;99.90
2212;DHT22;48849;48.758;9.158;2023-11-25T04:10:26;7.60;99.90
2212;DHT22;48849;48.758;9.158;2023-11-25T04:12:53;9.10;99.90
2212;DHT22;48849;48.758;9.158;2023-11-25T04:15:21;7.60;99.90
2212;DHT22;48849;48.758;9.158;2023-11-25T04:17:49;7.60;99.90
2212;DHT22;48849;48.758;9.158;2023-11-25T04:20:16;7.60;99.90
2212;DHT22;48849;48.758;9.158;2023-11-25T04:22:49;7.60;99.90
2212;DHT22;48849;48.758;9.158;2023-11-25T04:25:18;7.60;99.90
2212;DHT22;48849;48.758;9.158;2023-11-25T04:27:46;7.60;99.90
2212;DHT22;48849;48.758;9.158;2023-11-25T04:30:14;7.60;99.90
2212;DHT22;48849;48.758;9.158;2023-11-25T04:32:42;7.50;99.90
2212;DHT22;48849;48.758;9.158;2023-11-25T04:35:09;7.50;99.90
2212;DHT22;48849;48.758;9.158;2023-11-25T04:37:37;7.40;99.90
2212;DHT22;48849;48.758;9.158;2023-11-25T04:40:05;7.40;99.90
2212;DHT22;48849;48.758;9.158;2023-11-25T04:42:33;7.50;99.90
2212;DHT22;48849;48.758;9.158;2023-11-25T04:45:00;7.40;99.90
2212;DHT22;48849;48.758;9.158;2023-11-25T04:47:28;7.50;99.90
2212;DHT22;48849;48.758;9.158;2023-11-25T04:49:55;7.50;99.90
2212;DHT22;48849;48.758;9.158;2023-11-25T04:52:21;8.20;99.90
2212;DHT22;48849;48.758;9.158;2023-11-25T04:54:49;7.50;99.90
2212;DHT22;48849;48.758;9.158;2023-11-25T04:57:16;7.50;99.90
2212;DHT22;48849;48.758;9.158;2023-11-25T04:59:45;7.50;99.90
2212;DHT22;48849;48.758;9.158;2023-11-25T05:02:11;7.50;99.90
2212;DHT22;48849;48.758;9.158;2023-11-25T05:04:39;7.50;99.90
2212;DHT22;48849;48.758;9.158;2023-11-25T05:07:06;7.50;99.90
2212;DHT22;48849;48.758;9.158;2023-11-25T05:09:32;7.50;99.90
2212;DHT22;48849;48.758;9.158;2023-11-25T05:12:03;7.50;99.90
2212;DHT22;48849;48.758;9.158;2023-11-25T05:14:31;7.50;99.90
2212;DHT22;48849;48.758;9.158;2023-11-25T05:16:58;7.50;99.90
2212;DHT22;48849;48.758;9.158;2023-11-25T05:19:25;9.00;99.90
2212;DHT22;48849;48.758;9.158;2023-11-25T05:21:52;7.50;99.90
2212;DHT22;48849;48.758;9.158;2023-11-25T05:24:19;7.40;99.90
2212;DHT22;48849;48.758;9.158;2023-11-25T05:26:46;7.40;99.90
2212;DHT22;48849;48.758;9.158;2023-11-25T05:29:13;7.40;99.90
2212;DHT22;48849;48.758;9.158;2023-11-25T05:31:40;7.40;99.90
2212;DHT22;48849;48.758;9.158;2023-11-25T05:34:08;7.30;99.90
2212;DHT22;48849;48.758;9.158;2023-11-25T05:36:38;7.30;99.90
2212;DHT22;48849;48.758;9.158;2023-11-25T05:39:05;7.30;99.90
2212;DHT22;48849;48.758;9.158;2023-11-25T05:41:32;7.30;99.90
2212;DHT22;48849;48.758;9.158;2023-11-25T05:44:00;7.30;99.90
2212;DHT22;48849;48.758;9.158;2023-11-25T05:46:30;7.30;99.90
2212;DHT22;48849;48.758;9.158;2023-11-25T05:48:57;7.30;99.90
2212;DHT22;48849;48.758;9.158;2023-11-25T05:51:32;7.30;99.90
2212;DHT22;48849;48.758;9.158;2023-11-25T05:53:59;7.30;99.90
2212;DHT22;48849;48.758;9.158;2023-11-25T05:56:26;7.30;99.90
2212;DHT22;48849;48.758;9.158;2023-11-25T05:58:53;7.30;99.90
2212;DHT22;48849;48.758;9.158;2023-11-25T06:01:20;7.30;99.90
2212;DHT22;48849;48.758;9.158;2023-11-25T06:03:47;7.20;99.90
2212;DHT22;48849;48.758;9.158;2023-11-25T06:06:16;7.20;99.90
2212;DHT22;48849;48.758;9.158;2023-11-25T06:08:45;7.10;99.90
2212;DHT22;48849;48.758;9.158;2023-11-25T06:11:18;7.10;99.90
2212;DHT22;48849;48.758;9.158;2023-11-25T06:13:45;7.10;99.90
2212;DHT22;48849;48.758;9.158;2023-11-25T06:16:12;7.10;99.90
2212;DHT22;48849;48.758;9.158;2023-11-25T06:18:39;7.10;99.90
2212;DHT22;48849;48.758;9.158;2023-11-25T06:21:06;7.00;99.90
2212;DHT22;48849;48.758;9.158;2023-11-25T06:23:32;7.00;99.90
2212;DHT22;48849;48.758;9.158;2023-11-25T06:26:01;7.00;99.90
2212;DHT22;48849;48.758;9.158;2023-11-25T06:28:27;7.00;99.90
2212;DHT22;48849;48.758;9.158;2023-11-25T06:30:54;6.90;99.90
2212;DHT22;48849;48.758;9.158;2023-11-25T06:33:22;6.90;99.90
2212;DHT22;48849;48.758;9.158;2023-11-25T06:35:49;7.00;99.90
2212;DHT22;48849;48.758;9.158;2023-11-25T06:38:16;7.00;99.90
2212;DHT22;48849;48.758;9.158;2023-11-25T06:40:43;7.10;99.90
2212;DHT22;48849;48.758;9.158;2023-11-25T06:43:12;7.00;99.90
2212;DHT22;48849;48.758;9.158;2023-11-25T06:45:40;7.00;99.90
2212;DHT22;48849;48.758;9.158;2023-11-25T06:48:09;7.00;99.90
2212;DHT22;48849;48.758;9.158;2023-11-25T06:50:37;7.00;99.90
2212;DHT22;48849;48.758;9.158;2023-11-25T06:53:04;7.00;99.90
2212;DHT22;48849;48.758;9.158;2023-11-25T06:55:32;7.00;99.90
2212;DHT22;48849;48.758;9.158;2023-11-25T06:57:59;7.00;99.90
2212;DHT22;48849;48.758;9.158;2023-11-25T07:00:27;7.00;99.90
2212;DHT22;48849;48.758;9.158;2023-11-25T07:02:53;7.00;99.90
2212;DHT22;48849;48.758;9.158;2023-11-25T07:05:20;7.00;99.90
2212;DHT22;48849;48.758;9.158;2023-11-25T07:07:47;6.90;99.90
2212;DHT22;48849;48.758;9.158;2023-11-25T07:10:14;6.90;99.90
2212;DHT22;48849;48.758;9.158;2023-11-25T07:12:41;6.90;99.90
2212;DHT22;48849;48.758;9.158;2023-11-25T07:15:09;6.90;99.90
2212;DHT22;48849;48.758;9.158;2023-11-25T07:17:37;7.00;99.90
2212;DHT22;48849;48.758;9.158;2023-11-25T07:20:05;7.00;99.90
2212;DHT22;48849;48.758;9.158;2023-11-25T07:22:37;6.90;99.90
2212;DHT22;48849;48.758;9.158;2023-11-25T07:25:04;7.00;99.90
2212;DHT22;48849;48.758;9.158;2023-11-25T07:27:31;7.00;99.90
2212;DHT22;48849;48.758;9.158;2023-11-25T07:29:58;6.90;99.90
2212;DHT22;48849;48.758;9.158;2023-11-25T07:32:26;7.00;99.90
2212;DHT22;48849;48.758;9.158;2023-11-25T07:34:54;7.00;99.90
2212;DHT22;48849;48.758;9.158;2023-11-25T07:37:21;7.00;99.90
2212;DHT22;48849;48.758;9.158;2023-11-25T07:39:48;7.00;99.90
2212;DHT22;48849;48.758;9.158;2023-11-25T07:42:15;7.00;99.90
2212;DHT22;48849;48.758;9.158;2023-11-25T07:44:42;6.90;99.90
2212;DHT22;48849;48.758;9.158;2023-11-25T07:47:09;7.00;99.90
2212;DHT22;48849;48.758;9.158;2023-11-25T07:49:36;7.10;99.90
2212;DHT22;48849;48.758;9.158;2023-11-25T07:52:05;7.10;99.90
2212;DHT22;48849;48.758;9.158;2023-11-25T07:54:31;7.10;99.90
2212;DHT22;48849;48.758;9.158;2023-11-25T07:56:58;7.20;99.90
2212;DHT22;48849;48.758;9.158;2023-11-25T07:59:25;7.20;99.90
2212;DHT22;48849;48.758;9.158;2023-11-25T08:01:53;7.20;99.90
2212;DHT22;48849;48.758;9.158;2023-11-25T08:04:20;7.20;99.90
2212;DHT22;48849;48.758;9.158;2023-11-25T08:06:46;7.20;99.90
2212;DHT22;48849;48.758;9.158;2023-11-25T08:09:15;7.20;99.90
2212;DHT22;48849;48.758;9.158;2023-11-25T08:11:43;7.10;99.90
2212;DHT22;48849;48.758;9.158;2023-11-25T08:14:10;7.20;99.90
2212;DHT22;48849;48.758;9.158;2023-11-25T08:16:39;7.10;99.90
2212;DHT22;48849;48.758;9.158;2023-11-25T08:19:05;7.20;99.90
2212;DHT22;48849;48.758;9.158;2023-11-25T08:21:32;7.20;99.90
2212;DHT22;48849;48.758;9.158;2023-11-25T08:23:59;7.20;99.90
2212;DHT22;48849;48.758;9.158;2023-11-25T08:26:28;7.20;99.90
2212;DHT22;48849;48.758;9.158;2023-11-25T08:28:56;7.20;99.90
2212;DHT22;48849;48.758;9.158;2023-11-25T08:31:24;7.20;99.90
2212;DHT22;48849;48.758;9.158;2023-11-25T08:33:50;7.20;99.90
2212;DHT22;48849;48.758;9.158;2023-11-25T08:36:18;7.30;99.90
2212;DHT22;48849;48.758;9.158;2023-11-25T08:38:44;7.30;99.90
2212;DHT22;48849;48.758;9.158;2023-11-25T08:41:11;7.40;99.90
2212;DHT22;48849;48.758;9.158;2023-11-25T08:43:40;7.30;99.90
2212;DHT22;48849;48.758;9.158;2023-11-25T08:46:09;7.30;99.90
2212;DHT22;48849;48.758;9.158;2023-11-25T08:48:36;7.40;99.90
2212;DHT22;48849;48.758;9.158;2023-11-25T08:51:03;7.40;99.90
2212;DHT22;48849;48.758;9.158;2023-11-25T08:53:31;7.30;99.90
2212;DHT22;48849;48.758;9.158;2023-11-25T08:55:58;7.40;99.90
2212;DHT22;48849;48.758;9.158;2023-11-25T08:58:27;7.50;99.90
2212;DHT22;48849;48.758;9.158;2023-11-25T09:00:56;7.50;99.90
2212;DHT22;48849;48.758;9.158;2023-11-25T09:03:23;7.50;99.90
2212;DHT22;48849;48.758;9.158;2023-11-25T09:05:49;7.60;99.90
2212;DHT22;48849;48.758;9.158;2023-11-25T09:08:16;7.60;99.90
2212;DHT22;48849;48.758;9.158;2023-11-25T09:10:43;7.60;99.90
2212;DHT22;48849;48.758;9.158;2023-11-25T09:13:10;7.60;99.90
2212;DHT22;48849;48.758;9.158;2023-11-25T09:15:38;7.70;99.90
2212;DHT22;48849;48.758;9.158;2023-11-25T09:18:06;7.70;99.90
2212;DHT22;48849;48.758;9.158;2023-11-25T09:20:33;7.70;99.90
2212;DHT22;48849;48.758;9.158;2023-11-25T09:22:59;7.70;99.90
2212;DHT22;48849;48.758;9.158;2023-11-25T09:25:26;7.70;99.90
2212;DHT22;48849;48.758;9.158;2023-11-25T09:27:55;7.70;99.90
2212;DHT22;48849;48.758;9.158;2023-11-25T09:30:21;7.70;99.90
2212;DHT22;48849;48.758;9.158;2023-11-25T09:32:48;7.70;99.90
2212;DHT22;48849;48.758;9.158;2023-11-25T09:35:16;7.80;99.90
2212;DHT22;48849;48.758;9.158;2023-11-25T09:37:43;7.70;99.90
2212;DHT22;48849;48.758;9.158;2023-11-25T09:40:11;7.80;99.90
2212;DHT22;48849;48.758;9.158;2023-11-25T09:42:40;7.80;99.90
2212;DHT22;48849;48.758;9.158;2023-11-25T09:45:09;7.80;99.90
2212;DHT22;48849;48.758;9.158;2023-11-25T09:47:36;7.80;99.90
2212;DHT22;48849;48.758;9.158;2023-11-25T09:50:03;7.70;99.90
2212;DHT22;48849;48.758;9.158;2023-11-25T09:52:35;7.80;99.90
2212;DHT22;48849;48.758;9.158;2023-11-25T09:55:04;7.80;99.90
2212;DHT22;48849;48.758;9.158;2023-11-25T09:57:31;7.80;99.90
2212;DHT22;48849;48.758;9.158;2023-11-25T09:59:59;7.80;99.90
2212;DHT22;48849;48.758;9.158;2023-11-25T10:02:28;7.80;99.90
2212;DHT22;48849;48.758;9.158;2023-11-25T10:04:57;7.80;99.90
2212;DHT22;48849;48.758;9.158;2023-11-25T10:07:24;7.80;99.90
2212;DHT22;48849;48.758;9.158;2023-11-25T10:09:54;7.70;99.90
2212;DHT22;48849;48.758;9.158;2023-11-25T10:12:21;7.70;99.90
2212;DHT22;48849;48.758;9.158;2023-11-25T10:14:49;7.80;99.90
2212;DHT22;48849;48.758;9.158;2023-11-25T10:17:19;7.80;99.90
2212;DHT22;48849;48.758;9.158;2023-11-25T10:19:46;7.80;99.90
2212;DHT22;48849;48.758;9.158;2023-11-25T10:22:14;7.90;99.90
2212;DHT22;48849;48.758;9.158;2023-11-25T10:24:45;8.00;99.90
2212;DHT22;48849;48.758;9.158;2023-11-25T10:27:16;7.90;99.90
2212;DHT22;48849;48.758;9.158;2023-11-25T10:29:43;7.90;99.90
2212;DHT22;48849;48.758;9.158;2023-11-25T10:32:12;7.90;99.90
2212;DHT22;48849;48.758;9.158;2023-11-25T10:34:40;7.90;99.90
2212;DHT22;48849;48.758;9.158;2023-11-25T10:37:08;7.90;99.90
2212;DHT22;48849;48.758;9.158;2023-11-25T10:39:35;8.00;99.90
2212;DHT22;48849;48.758;9.158;2023-11-25T10:42:02;8.00;99.90
2212;DHT22;48849;48.758;9.158;2023-11-25T10:44:34;8.00;99.90
2212;DHT22;48849;48.758;9.158;2023-11-25T10:47:01;8.10;99.90
2212;DHT22;48849;48.758;9.158;2023-11-25T10:49:31;8.10;99.90
2212;DHT22;48849;48.758;9.158;2023-11-25T10:52:01;8.10;99.90
2212;DHT22;48849;48.758;9.158;2023-11-25T10:54:30;8.10;99.90
2212;DHT22;48849;48.758;9.158;2023-11-25T10:56:58;8.20;99.90
2212;DHT22;48849;48.758;9.158;2023-11-25T10:59:33;8.20;99.90
2212;DHT22;48849;48.758;9.158;2023-11-25T11:02:17;8.30;99.90
2212;DHT22;48849;48.758;9.158;2023-11-25T11:04:48;8.30;99.90
2212;DHT22;48849;48.758;9.158;2023-11-25T11:07:17;8.40;99.90
2212;DHT22;48849;48.758;9.158;2023-11-25T11:09:46;8.40;99.90
2212;DHT22;48849;48.758;9.158;2023-11-25T11:12:21;8.40;99.90
2212;DHT22;48849;48.758;9.158;2023-11-25T11:15:01;8.40;99.90
2212;DHT22;48849;48.758;9.158;2023-11-25T11:17:36;8.50;99.90
2212;DHT22;48849;48.758;9.158;2023-11-25T11:20:05;8.50;99.90
2212;DHT22;48849;48.758;9.158;2023-11-25T11:22:38;8.50;99.90
2212;DHT22;48849;48.758;9.158;2023-11-25T11:25:11;8.50;99.90
2212;DHT22;48849;48.758;9.158;2023-11-25T11:27:46;8.50;99.90
2212;DHT22;48849;48.758;9.158;2023-11-25T11:30:20;8.50;99.90
2212;DHT22;48849;48.758;9.158;2023-11-25T11:32:49;8.40;99.90
2212;DHT22;48849;48.758;9.158;2023-11-25T11:35:18;8.40;99.90
2212;DHT22;48849;48.758;9.158;2023-11-25T11:37:47;8.40;99.90
2212;DHT22;48849;48.758;9.158;2023-11-25T11:40:15;8.40;99.90
2212;DHT22;48849;48.758;9.158;2023-11-25T11:42:46;8.40;99.90
2212;DHT22;48849;48.758;9.158;2023-11-25T11:45:15;8.40;99.90
2212;DHT22;48849;48.758;9.158;2023-11-25T11:47:50;8.40;99.90
2212;DHT22;48849;48.758;9.158;2023-11-25T11:50:18;9.60;99.90
2212;DHT22;48849;48.758;9.158;2023-11-25T11:53:11;8.30;99.90
2212;DHT22;48849;48.758;9.158;2023-11-25T11:55:43;8.10;99.90
2212;DHT22;48849;48.758;9.158;2023-11-25T11:58:11;8.20;99.90
2212;DHT22;48849;48.758;9.158;2023-11-25T12:01:06;8.10;99.90
2212;DHT22;48849;48.758;9.158;2023-11-25T12:03:34;8.10;99.90
2212;DHT22;48849;48.758;9.158;2023-11-25T12:06:02;8.10;99.90
2212;DHT22;48849;48.758;9.158;2023-11-25T12:08:31;8.00;99.90
2212;DHT22;48849;48.758;9.158;2023-11-25T12:10:59;8.10;99.90
2212;DHT22;48849;48.758;9.158;2023-11-25T12:13:32;8.00;99.90
2212;DHT22;48849;48.758;9.158;2023-11-25T12:15:59;8.00;99.90
2212;DHT22;48849;48.758;9.158;2023-11-25T12:18:29;8.00;99.90
2212;DHT22;48849;48.758;9.158;2023-11-25T12:20:57;8.00;99.90
2212;DHT22;48849;48.758;9.158;2023-11-25T12:23:27;7.90;99.90
2212;DHT22;48849;48.758;9.158;2023-11-25T12:25:53;7.90;99.90
2212;DHT22;48849;48.758;9.158;2023-11-25T12:28:20;8.00;99.90
2212;DHT22;48849;48.758;9.158;2023-11-25T12:30:49;7.90;99.90
2212;DHT22;48849;48.758;9.158;2023-11-25T12:33:17;7.80;99.90
2212;DHT22;48849;48.758;9.158;2023-11-25T12:35:45;7.80;99.90
2212;DHT22;48849;48.758;9.158;2023-11-25T12:38:13;7.80;99.90
2212;DHT22;48849;48.758;9.158;2023-11-25T12:40:41;7.80;99.90
2212;DHT22;48849;48.758;9.158;2023-11-25T12:43:10;7.90;99.90
2212;DHT22;48849;48.758;9.158;2023-11-25T12:45:38;7.80;99.90
2212;DHT22;48849;48.758;9.158;2023-11-25T12:48:06;7.80;99.90
2212;DHT22;48849;48.758;9.158;2023-11-25T12:50:59;7.80;99.90
2212;DHT22;48849;48.758;9.158;2023-11-25T12:53:26;7.80;99.90
2212;DHT22;48849;48.758;9.158;2023-11-25T12:55:53;7.80;99.90
2212;DHT22;48849;48.758;9.158;2023-11-25T12:58:23;7.80;99.90
2212;DHT22;48849;48.758;9.158;2023-11-25T13:00:52;7.80;99.90
2212;DHT22;48849;48.758;9.158;2023-11-25T13:03:21;7.90;99.90
2212;DHT22;48849;48.758;9.158;2023-11-25T13:05:48;7.80;99.90
2212;DHT22;48849;48.758;9.158;2023-11-25T13:08:21;7.80;99.90
2212;DHT22;48849;48.758;9.158;2023-11-25T13:10:49;7.80;99.90
2212;DHT22;48849;48.758;9.158;2023-11-25T13:13:16;7.80;99.90
2212;DHT22;48849;48.758;9.158;2023-11-25T13:15:42;7.80;99.90
2212;DHT22;48849;48.758;9.158;2023-11-25T13:18:09;7.80;99.90
2212;DHT22;48849;48.758;9.158;2023-11-25T13:20:38;7.80;99.90
2212;DHT22;48849;48.758;9.158;2023-11-25T13:23:05;7.80;99.90
2212;DHT22;48849;48.758;9.158;2023-11-25T13:25:33;7.80;99.90
2212;DHT22;48849;48.758;9.158;2023-11-25T13:28:00;7.90;99.90
2212;DHT22;48849;48.758;9.158;2023-11-25T13:30:27;7.80;99.90
2212;DHT22;48849;48.758;9.158;2023-11-25T13:32:55;7.70;99.90
2212;DHT22;48849;48.758;9.158;2023-11-25T13:35:22;8.80;99.90
2212;DHT22;48849;48.758;9.158;2023-11-25T13:37:50;7.70;99.90
2212;DHT22;48849;48.758;9.158;2023-11-25T13:40:19;7.70;99.90
2212;DHT22;48849;48.758;9.158;2023-11-25T13:42:47;8.20;99.90
2212;DHT22;48849;48.758;9.158;2023-11-25T13:45:14;7.70;99.90
2212;DHT22;48849;48.758;9.158;2023-11-25T13:47:40;8.40;99.90
2212;DHT22;48849;48.758;9.158;2023-11-25T13:50:07;7.70;99.90
2212;DHT22;48849;48.758;9.158;2023-11-25T13:52:36;7.70;99.90
2212;DHT22;48849;48.758;9.158;2023-11-25T13:55:04;7.70;99.90
2212;DHT22;48849;48.758;9.158;2023-11-25T13:57:31;7.70;99.90
2212;DHT22;48849;48.758;9.158;2023-11-25T13:59:59;7.70;99.90
2212;DHT22;48849;48.758;9.158;2023-11-25T14:02:26;7.70;99.90
2212;DHT22;48849;48.758;9.158;2023-11-25T14:04:55;7.60;99.90
2212;DHT22;48849;48.758;9.158;2023-11-25T14:07:22;7.70;99.90
2212;DHT22;48849;48.758;9.158;2023-11-25T14:09:50;7.70;99.90
2212;DHT22;48849;48.758;9.158;2023-11-25T14:12:16;8.00;99.90
2212;DHT22;48849;48.758;9.158;2023-11-25T14:14:43;7.70;99.90
2212;DHT22;48849;48.758;9.158;2023-11-25T14:17:11;7.80;99.90
2212;DHT22;48849;48.758;9.158;2023-11-25T14:19:42;7.80;99.90
2212;DHT22;48849;48.758;9.158;2023-11-25T14:22:10;7.80;99.90
2212;DHT22;48849;48.758;9.158;2023-11-25T14:24:37;7.70;99.90
2212;DHT22;48849;48.758;9.158;2023-11-25T14:27:04;7.70;99.90
2212;DHT22;48849;48.758;9.158;2023-11-25T14:29:31;7.70;99.90
2212;DHT22;48849;48.758;9.158;2023-11-25T14:31:57;7.70;99.90
2212;DHT22;48849;48.758;9.158;2023-11-25T14:34:26;7.70;99.90
2212;DHT22;48849;48.758;9.158;2023-11-25T14:36:52;7.80;99.90
2212;DHT22;48849;48.758;9.158;2023-11-25T14:39:19;9.20;99.90
2212;DHT22;48849;48.758;9.158;2023-11-25T14:41:58;7.70;99.90
2212;DHT22;48849;48.758;9.158;2023-11-25T14:44:25;7.70;99.90
2212;DHT22;48849;48.758;9.158;2023-11-25T14:46:51;7.70;99.90
2212;DHT22;48849;48.758;9.158;2023-11-25T14:49:18;7.80;99.90
2212;DHT22;48849;48.758;9.158;2023-11-25T14:51:46;7.80;99.90
2212;DHT22;48849;48.758;9.158;2023-11-25T14:54:13;7.90;99.90
2212;DHT22;48849;48.758;9.158;2023-11-25T14:56:40;7.90;99.90
2212;DHT22;48849;48.758;9.158;2023-11-25T14:59:08;7.90;99.90
2212;DHT22;48849;48.758;9.158;2023-11-25T15:01:35;7.90;99.90
2212;DHT22;48849;48.758;9.158;2023-11-25T15:04:02;7.90;99.90
2212;DHT22;48849;48.758;9.158;2023-11-25T15:06:29;7.90;99.90
2212;DHT22;48849;48.758;9.158;2023-11-25T15:08:57;8.00;99.90
2212;DHT22;48849;48.758;9.158;2023-11-25T15:11:24;8.00;99.90
2212;DHT22;48849;48.758;9.158;2023-11-25T15:13:51;9.60;99.90
2212;DHT22;48849;48.758;9.158;2023-11-25T15:16:18;8.00;99.90
2212;DHT22;48849;48.758;9.158;2023-11-25T15:18:44;7.90;99.90
2212;DHT22;48849;48.758;9.158;2023-11-25T15:21:16;7.80;99.90
2212;DHT22;48849;48.758;9.158;2023-11-25T15:23:43;7.80;99.90
2212;DHT22;48849;48.758;9.158;2023-11-25T15:26:11;7.90;99.90
2212;DHT22;48849;48.758;9.158;2023-11-25T15:28:38;7.90;99.90
2212;DHT22;48849;48.758;9.158;2023-11-25T15:31:08;7.90;99.90
2212;DHT22;48849;48.758;9.158;2023-11-25T15:33:35;7.90;99.90
2212;DHT22;48849;48.758;9.158;2023-11-25T15:36:01;7.90;99.90
2212;DHT22;48849;48.758;9.158;2023-11-25T15:38:28;7.90;99.90
2212;DHT22;48849;48.758;9.158;2023-11-25T15:40:55;7.90;99.90
2212;DHT22;48849;48.758;9.158;2023-11-25T15:43:23;7.90;99.90
2212;DHT22;48849;48.758;9.158;2023-11-25T15:45:50;7.80;99.90
2212;DHT22;48849;48.758;9.158;2023-11-25T15:48:18;7.80;99.90
2212;DHT22;48849;48.758;9.158;2023-11-25T15:50:45;7.70;99.90
2212;DHT22;48849;48.758;9.158;2023-11-25T15:53:12;7.80;99.90
2212;DHT22;48849;48.758;9.158;2023-11-25T15:55:40;7.80;99.90
2212;DHT22;48849;48.758;9.158;2023-11-25T15:58:06;7.90;99.90
2212;DHT22;48849;48.758;9.158;2023-11-25T16:00:35;7.80;99.90
2212;DHT22;48849;48.758;9.158;2023-11-25T16:03:01;7.80;99.90
2212;DHT22;48849;48.758;9.158;2023-11-25T16:05:28;7.80;99.90
2212;DHT22;48849;48.758;9.158;2023-11-25T16:07:55;7.80;99.90